createdAt,value
2023-02-22T00:02:11.084Z,100530.66
2023-02-22T00:06:16.662Z,100527.16
2023-02-22T00:10:21.376Z,100518.63
2023-02-22T00:14:26.317Z,100517.72
2023-02-22T00:18:29.320Z,100512.66
2023-02-22T00:22:30.825Z,100508.44
2023-02-22T00:26:33.331Z,100501.50
2023-02-22T00:30:35.120Z,100500.81
2023-02-22T00:34:36.715Z,100495.41
2023-02-22T00:38:38.897Z,100490.28
2023-02-22T00:42:40.563Z,100499.56
2023-02-22T00:46:42.352Z,100486.69
2023-02-22T00:50:43.911Z,100485.75
2023-02-22T00:54:45.465Z,100489.88
2023-02-22T00:58:46.991Z,100489.78
2023-02-22T01:02:51.707Z,100482.72
2023-02-22T01:06:54.017Z,100491.19
2023-02-22T01:10:56.468Z,100484.69
2023-02-22T01:14:58.251Z,100476.59
2023-02-22T01:19:01.406Z,100474.75
2023-02-22T01:23:06.986Z,100477.22
2023-02-22T01:27:08.809Z,100476.25
2023-02-22T01:31:10.533Z,100473.97
2023-02-22T01:35:15.874Z,100478.81
2023-02-22T01:39:17.940Z,100476.47
2023-02-22T01:43:31.727Z,100457.75
2023-02-22T01:47:33.726Z,100461.19
2023-02-22T01:51:43.970Z,100461.19
2023-02-22T01:55:47.365Z,100454.31
2023-02-22T01:59:53.927Z,100454.03
2023-02-22T02:03:58.598Z,100446.31
2023-02-22T02:08:16.231Z,100443.59
2023-02-22T02:12:20.913Z,100444.81
2023-02-22T02:16:34.288Z,100436.88
2023-02-22T02:20:49.946Z,100447.53
2023-02-22T02:25:26.573Z,100437.50
2023-02-22T02:29:45.514Z,100440.84
2023-02-22T02:34:09.750Z,100430.84
2023-02-22T02:38:39.845Z,100430.84
2023-02-22T02:42:49.484Z,100424.78
2023-02-22T02:46:57.479Z,100424.00
2023-02-22T02:51:01.030Z,100422.94
2023-02-22T02:55:06.403Z,100413.50
2023-02-22T02:59:24.449Z,100413.19
2023-02-22T03:03:47.595Z,100412.13
2023-02-22T03:07:52.240Z,100407.81
2023-02-22T03:12:17.546Z,100417.75
2023-02-22T03:16:25.290Z,100411.09
2023-02-22T03:20:33.569Z,100409.09
2023-02-22T03:24:58.868Z,100412.94
2023-02-22T03:29:05.068Z,100406.75
2023-02-22T03:33:14.510Z,100403.28
2023-02-22T03:37:19.368Z,100405.09
2023-02-22T03:41:26.618Z,100400.25
2023-02-22T03:45:30.907Z,100396.13
2023-02-22T03:50:02.462Z,100392.88
2023-02-22T03:54:05.200Z,100393.84
2023-02-22T03:58:13.874Z,100392.16
2023-02-22T04:02:18.931Z,100391.38
2023-02-22T04:06:20.491Z,100392.16
2023-02-22T04:10:23.223Z,100394.63
2023-02-22T04:14:24.926Z,100398.03
2023-02-22T04:18:26.531Z,100397.88
2023-02-22T04:22:28.319Z,100403.81
2023-02-22T04:26:30.205Z,100399.47
2023-02-22T04:30:34.100Z,100406.13
2023-02-22T04:34:37.945Z,100401.88
2023-02-22T04:38:39.991Z,100402.00
2023-02-22T04:42:42.228Z,100400.31
2023-02-22T04:46:43.928Z,100396.91
2023-02-22T04:50:48.353Z,100407.06
2023-02-22T04:54:50.894Z,100401.72
2023-02-22T04:58:53.462Z,100405.94
2023-02-22T05:02:55.084Z,100394.00
2023-02-22T05:06:56.669Z,100401.56
2023-02-22T05:10:58.209Z,100391.94
2023-02-22T05:14:59.788Z,100397.56
2023-02-22T05:19:01.524Z,100386.44
2023-02-22T05:23:04.101Z,100388.72
2023-02-22T05:27:05.715Z,100388.78
2023-02-22T05:31:07.496Z,100392.38
2023-02-22T05:35:09.067Z,100383.72
2023-02-22T05:39:10.625Z,100383.09
2023-02-22T05:43:12.342Z,100378.19
2023-02-22T05:47:13.846Z,100378.19
2023-02-22T05:51:15.647Z,100381.78
2023-02-22T05:55:20.074Z,100387.72
2023-02-22T05:59:21.643Z,100379.25
2023-02-22T06:03:23.150Z,100379.59
2023-02-22T06:07:24.670Z,100385.72
2023-02-22T06:11:28.397Z,100393.00
2023-02-22T06:15:30.600Z,100389.50
2023-02-22T06:19:32.196Z,100393.09
2023-02-22T06:23:33.781Z,100393.91
2023-02-22T06:27:36.187Z,100385.16
2023-02-22T06:31:37.882Z,100388.09
2023-02-22T06:35:39.406Z,100402.91
2023-02-22T06:39:40.979Z,100401.41
2023-02-22T06:43:42.614Z,100411.00
2023-02-22T06:47:44.154Z,100409.50
2023-02-22T06:51:46.629Z,100408.22
2023-02-22T06:55:48.211Z,100409.41
2023-02-22T06:59:49.806Z,100416.59
2023-02-22T07:03:51.399Z,100411.78
2023-02-22T07:07:55.057Z,100411.13
2023-02-22T07:11:56.658Z,100419.72
2023-02-22T07:15:58.227Z,100424.97
2023-02-22T07:19:59.809Z,100426.53
2023-02-22T07:24:01.353Z,100426.72
2023-02-22T07:28:02.920Z,100428.63
2023-02-22T07:32:04.576Z,100432.38
2023-02-22T07:36:06.501Z,100428.16
2023-02-22T07:40:08.664Z,100423.94
2023-02-22T07:44:10.182Z,100418.41
2023-02-22T07:48:13.070Z,100424.69
2023-02-22T07:52:14.716Z,100420.84
2023-02-22T07:56:18.114Z,100417.59
2023-02-22T08:00:26.761Z,100422.81
2023-02-22T08:04:28.296Z,100420.59
2023-02-22T08:08:30.182Z,100422.75
2023-02-22T08:12:31.833Z,100421.31
2023-02-22T08:16:33.477Z,100411.88
2023-02-22T08:20:36.676Z,100416.50
2023-02-22T08:24:38.257Z,100412.06
2023-02-22T08:28:39.882Z,100411.81
2023-02-22T08:32:41.537Z,100421.38
2023-02-22T08:36:43.202Z,100418.56
2023-02-22T08:40:44.894Z,100419.22
2023-02-22T08:44:46.489Z,100413.47
2023-02-22T08:48:52.090Z,100419.00
2023-02-22T08:52:56.796Z,100418.75
2023-02-22T08:56:58.416Z,100416.22
2023-02-22T09:00:59.966Z,100418.47
2023-02-22T09:05:01.534Z,100421.69
2023-02-22T09:09:03.236Z,100412.91
2023-02-22T09:13:05.133Z,100414.47
2023-02-22T09:17:06.724Z,100400.59
2023-02-22T09:21:08.498Z,100404.72
2023-02-22T09:25:16.569Z,100397.88
2023-02-22T09:29:22.807Z,100395.91
2023-02-22T09:33:25.946Z,100394.34
2023-02-22T09:37:27.554Z,100389.72
2023-02-22T09:41:36.590Z,100379.38
2023-02-22T09:45:49.200Z,100372.34
2023-02-22T09:50:02.308Z,100373.25
2023-02-22T09:54:10.720Z,100371.53
2023-02-22T09:58:26.665Z,100365.44
2023-02-22T10:02:41.350Z,100360.69
2023-02-22T10:06:52.573Z,100357.69
2023-02-22T10:11:05.589Z,100353.91
2023-02-22T10:15:32.370Z,100347.84
2023-02-22T10:20:06.313Z,100345.16
2023-02-22T10:24:31.331Z,100340.78
2023-02-22T10:28:43.111Z,100339.81
2023-02-22T10:32:49.010Z,100336.88
2023-02-22T10:36:57.357Z,100345.03
2023-02-22T10:41:09.398Z,100335.88
2023-02-22T10:45:32.465Z,100336.91
2023-02-22T10:49:42.156Z,100335.22
2023-02-22T10:53:47.132Z,100331.13
2023-02-22T10:57:51.667Z,100341.47
2023-02-22T11:01:53.559Z,100326.97
2023-02-22T11:05:55.176Z,100325.09
2023-02-22T11:10:05.250Z,100324.41
2023-02-22T11:14:10.623Z,100326.50
2023-02-22T11:18:31.886Z,100309.84
2023-02-22T11:22:41.685Z,100308.50
2023-02-22T11:26:44.735Z,100301.31
2023-02-22T11:30:51.663Z,100287.88
2023-02-22T11:35:12.514Z,100290.69
2023-02-22T11:39:26.812Z,100278.94
2023-02-22T11:43:28.414Z,100273.38
2023-02-22T11:47:29.969Z,100266.75
2023-02-22T11:51:39.584Z,100270.50
2023-02-22T11:56:08.002Z,100252.94
2023-02-22T12:00:24.830Z,100257.44
2023-02-22T12:04:45.391Z,100252.38
2023-02-22T12:09:04.468Z,100256.09
2023-02-22T12:13:17.023Z,100246.78
2023-02-22T12:17:39.002Z,100244.50
2023-02-22T12:21:46.648Z,100237.91
2023-02-22T12:25:58.899Z,100236.53
2023-02-22T12:30:25.349Z,100232.53
2023-02-22T12:34:40.900Z,100233.53
2023-02-22T12:38:47.042Z,100226.78
2023-02-22T12:43:05.384Z,100227.00
2023-02-22T12:47:14.140Z,100216.81
2023-02-22T12:51:25.635Z,100209.34
2023-02-22T12:55:35.343Z,100200.28
2023-02-22T12:59:49.039Z,100194.53
2023-02-22T13:03:50.773Z,100199.94
2023-02-22T13:07:59.359Z,100194.91
2023-02-22T13:12:19.010Z,100196.75
2023-02-22T13:16:41.165Z,100183.09
2023-02-22T13:20:58.111Z,100189.16
2023-02-22T13:25:26.167Z,100184.22
2023-02-22T13:29:42.714Z,100175.88
2023-02-22T13:34:19.539Z,100174.44
2023-02-22T13:38:36.409Z,100169.53
2023-02-22T13:42:45.988Z,100161.22
2023-02-22T13:47:07.604Z,100169.06
2023-02-22T13:51:32.754Z,100154.56
2023-02-22T13:55:38.461Z,100153.66
2023-02-22T13:59:41.124Z,100150.94
2023-02-22T14:03:42.650Z,100149.94
2023-02-22T14:07:48.642Z,100149.94
2023-02-22T14:11:54.133Z,100148.38
2023-02-22T14:15:59.971Z,100139.97
2023-02-22T14:20:20.711Z,100140.09
2023-02-22T14:24:22.434Z,100140.25
2023-02-22T14:28:39.360Z,100134.31
2023-02-22T14:32:40.965Z,100125.91
2023-02-22T14:36:51.720Z,100133.81
2023-02-22T14:40:54.611Z,100133.84
2023-02-22T14:45:17.411Z,100132.97
2023-02-22T14:49:22.200Z,100126.00
2023-02-22T14:53:48.821Z,100120.72
2023-02-22T14:57:53.655Z,100128.13
2023-02-22T15:02:13.146Z,100128.75
2023-02-22T15:06:24.035Z,100130.25
2023-02-22T15:10:47.451Z,100133.50
2023-02-22T15:14:49.700Z,100131.69
2023-02-22T15:18:58.008Z,100125.63
2023-02-22T15:23:00.285Z,100122.94
2023-02-22T15:27:07.323Z,100126.38
2023-02-22T15:31:39.246Z,100121.13
2023-02-22T15:35:41.852Z,100121.94
2023-02-22T15:39:43.886Z,100124.47
2023-02-22T15:43:45.564Z,100121.81
2023-02-22T15:47:49.696Z,100125.97
2023-02-22T15:52:03.837Z,100129.28
2023-02-22T15:56:11.968Z,100134.28
2023-02-22T16:00:30.505Z,100137.53
2023-02-22T16:04:32.158Z,100131.38
2023-02-22T16:08:54.459Z,100137.22
2023-02-22T16:13:31.024Z,100138.78
2023-02-22T16:17:37.807Z,100139.50
2023-02-22T16:22:02.818Z,100142.75
2023-02-22T16:26:16.127Z,100143.50
2023-02-22T16:30:23.915Z,100145.94
2023-02-22T16:34:26.618Z,100153.47
2023-02-22T16:38:32.761Z,100153.34
2023-02-22T16:42:34.375Z,100161.72
2023-02-22T16:46:37.759Z,100157.31
2023-02-22T16:50:39.362Z,100170.00
2023-02-22T16:54:46.189Z,100162.94
2023-02-22T16:58:50.107Z,100167.72
2023-02-22T17:02:51.651Z,100168.38
2023-02-22T17:06:53.432Z,100174.25
2023-02-22T17:10:56.664Z,100181.75
2023-02-22T17:14:58.434Z,100183.31
2023-02-22T17:19:00.171Z,100183.16
2023-02-22T17:23:05.184Z,100184.78
2023-02-22T17:27:06.785Z,100198.34
2023-02-22T17:31:08.409Z,100188.88
2023-02-22T17:35:10.008Z,100200.94
2023-02-22T17:39:11.736Z,100195.06
2023-02-22T17:43:13.760Z,100202.72
2023-02-22T17:47:15.335Z,100211.19
2023-02-22T17:51:17.337Z,100214.53
2023-02-22T17:55:20.594Z,100210.91
2023-02-22T17:59:22.183Z,100217.56
2023-02-22T18:03:25.694Z,100216.50
2023-02-22T18:07:27.671Z,100217.31
2023-02-22T18:11:32.415Z,100214.69
2023-02-22T18:15:36.509Z,100222.25
2023-02-22T18:19:38.616Z,100219.63
2023-02-22T18:23:40.256Z,100215.38
2023-02-22T18:27:45.388Z,100211.91
2023-02-22T18:31:46.968Z,100230.63
2023-02-22T18:35:52.248Z,100223.66
2023-02-22T18:39:55.585Z,100227.03
2023-02-22T18:44:00.240Z,100223.44
2023-02-22T18:48:01.836Z,100221.59
2023-02-22T18:52:03.510Z,100222.34
2023-02-22T18:56:11.680Z,100219.78
2023-02-22T19:00:17.099Z,100228.25
2023-02-22T19:04:18.698Z,100221.31
2023-02-22T19:08:20.243Z,100226.44
2023-02-22T19:12:21.815Z,100226.31
2023-02-22T19:16:25.942Z,100221.06
2023-02-22T19:20:32.833Z,100217.50
2023-02-22T19:24:34.997Z,100213.16
2023-02-22T19:28:36.630Z,100216.41
2023-02-22T19:32:40.757Z,100212.97
2023-02-22T19:36:47.316Z,100209.47
2023-02-22T19:40:48.907Z,100209.38
2023-02-22T19:44:52.529Z,100202.50
2023-02-22T19:48:57.767Z,100212.72
2023-02-22T19:52:59.419Z,100210.09
2023-02-22T19:57:01.130Z,100209.19
2023-02-22T20:01:11.002Z,100208.28
2023-02-22T20:05:16.296Z,100217.53
2023-02-22T20:09:20.342Z,100226.75
2023-02-22T20:13:21.952Z,100218.91
2023-02-22T20:17:23.558Z,100221.34
2023-02-22T20:21:30.751Z,100229.84
2023-02-22T20:25:32.396Z,100230.72
2023-02-22T20:29:34.082Z,100221.47
2023-02-22T20:33:35.773Z,100216.66
2023-02-22T20:37:39.619Z,100223.69
2023-02-22T20:41:42.898Z,100229.81
2023-02-22T20:45:44.425Z,100229.06
2023-02-22T20:49:46.080Z,100224.00
2023-02-22T20:53:47.824Z,100238.53
2023-02-22T20:57:51.661Z,100236.91
2023-02-22T21:01:53.310Z,100235.34
2023-02-22T21:05:54.921Z,100240.59
2023-02-22T21:09:57.109Z,100237.31
2023-02-22T21:14:00.221Z,100240.75
2023-02-22T21:18:02.675Z,100225.53
2023-02-22T21:22:08.109Z,100227.47
2023-02-22T21:26:15.591Z,100236.00
2023-02-22T21:30:17.731Z,100237.75
2023-02-22T21:34:19.958Z,100235.19
2023-02-22T21:38:21.893Z,100238.53
2023-02-22T21:42:23.478Z,100239.44
2023-02-22T21:46:27.005Z,100236.97
2023-02-22T21:50:30.293Z,100236.09
2023-02-22T21:54:31.928Z,100227.31
2023-02-22T21:58:33.891Z,100240.00
2023-02-22T22:02:38.073Z,100236.44
2023-02-22T22:06:39.838Z,100239.88
2023-02-22T22:10:41.414Z,100251.03
2023-02-22T22:14:42.976Z,100229.72
2023-02-22T22:18:45.972Z,100235.88
2023-02-22T22:22:47.621Z,100227.41
2023-02-22T22:26:57.952Z,100234.16
2023-02-22T22:30:59.577Z,100238.25
2023-02-22T22:35:01.609Z,100234.84
2023-02-22T22:39:16.021Z,100239.22
2023-02-22T22:43:18.203Z,100234.16
2023-02-22T22:47:20.661Z,100230.88
2023-02-22T22:51:22.580Z,100231.75
2023-02-22T22:55:24.293Z,100235.19
2023-02-22T22:59:27.746Z,100230.97
2023-02-22T23:03:29.919Z,100233.63
2023-02-22T23:07:31.488Z,100230.19
2023-02-22T23:11:33.740Z,100224.97
2023-02-22T23:15:36.689Z,100234.31
2023-02-22T23:19:38.303Z,100231.59
2023-02-22T23:23:41.145Z,100233.06
2023-02-22T23:27:42.797Z,100232.97
2023-02-22T23:31:47.926Z,100232.88
2023-02-22T23:35:49.747Z,100229.28
2023-02-22T23:39:51.254Z,100233.47
2023-02-22T23:43:52.745Z,100237.66
2023-02-22T23:47:56.693Z,100240.31
2023-02-22T23:51:58.282Z,100232.56
2023-02-22T23:56:00.214Z,100229.97
